Corcoran, Minnesota
Current Conditions -  °F | °C
As of 5:27 AM on Tuesday 21 Oct 2014 (Local Time) from KMIC Reporting Station
Haze Haze  
Wind Chill: 33°   Ceiling: Unl
Heat Index: 33°   Visibility: 2mi
Dew Point: 31°   Wind: 0mph
Humidity: 92%   Direction: NA
Pressure: 30.15"   Gusts: NA
Location:  45.0992°N, 93.4917°W
Report Text: KMIC 211027Z AUTO 00000KT 2SM BR CLR 01/M01 A3015 RMK AO2 T00061006
Loading
Personal Weather Stations






























Interactive Weather Map
Tropical Storm Tracking
New forecast layout! Learn more

10-Day Weather Forecast

Advertisements
Track Severe Weather on mobile